METAR Data
IDs: Format: Raw Decoded Include TAF

Data at: 0652 UTC 28 Sep 2022

KCRP 280551Z 28003KT 10SM FEW003 20/15 A3011 RMK AO2 SLP195 FU FEW003 T02000150 10289 20194 403280194 51004